sensor_id;sensor_type;location;lat;lon;timestamp;pressure;altitude;pressure_sealevel;temperature;humidity
64616;BME280;51027;42.162;24.754;2023-04-06T00:01:11;99562.44;;;3.53;74.14
64616;BME280;51027;42.162;24.754;2023-04-06T00:03:37;99552.34;;;3.29;74.89
64616;BME280;51027;42.162;24.754;2023-04-06T00:06:03;99553.22;;;3.26;75.27
64616;BME280;51027;42.162;24.754;2023-04-06T00:08:28;99543.84;;;3.14;75.71
64616;BME280;51027;42.162;24.754;2023-04-06T00:10:54;99516.22;;;3.03;75.46
64616;BME280;51027;42.162;24.754;2023-04-06T00:13:19;99537.06;;;3.00;75.59
64616;BME280;51027;42.162;24.754;2023-04-06T00:15:45;99534.31;;;3.13;75.20
64616;BME280;51027;42.162;24.754;2023-04-06T00:18:10;99540.56;;;2.99;75.66
64616;BME280;51027;42.162;24.754;2023-04-06T00:20:36;99529.38;;;2.91;75.96
64616;BME280;51027;42.162;24.754;2023-04-06T00:23:01;99541.34;;;3.04;75.66
64616;BME280;51027;42.162;24.754;2023-04-06T00:25:27;99516.41;;;2.87;75.70
64616;BME280;51027;42.162;24.754;2023-04-06T00:27:52;99532.66;;;3.08;75.50
64616;BME280;51027;42.162;24.754;2023-04-06T00:30:18;99538.84;;;2.98;75.41
64616;BME280;51027;42.162;24.754;2023-04-06T00:32:43;99525.06;;;2.88;75.84
64616;BME280;51027;42.162;24.754;2023-04-06T00:35:09;99527.69;;;2.85;75.90
64616;BME280;51027;42.162;24.754;2023-04-06T00:37:34;99523.41;;;2.81;75.59
64616;BME280;51027;42.162;24.754;2023-04-06T00:40:00;99527.78;;;2.76;76.19
64616;BME280;51027;42.162;24.754;2023-04-06T00:42:26;99526.06;;;2.75;76.07
64616;BME280;51027;42.162;24.754;2023-04-06T00:44:56;99523.44;;;2.78;76.66
64616;BME280;51027;42.162;24.754;2023-04-06T00:47:22;99514.88;;;2.70;76.56
64616;BME280;51027;42.162;24.754;2023-04-06T00:49:48;99511.41;;;2.69;76.54
64616;BME280;51027;42.162;24.754;2023-04-06T00:52:14;99514.03;;;2.68;76.83
64616;BME280;51027;42.162;24.754;2023-04-06T00:54:40;99514.03;;;2.68;76.71
64616;BME280;51027;42.162;24.754;2023-04-06T00:57:05;99517.47;;;2.68;76.69
64616;BME280;51027;42.162;24.754;2023-04-06T00:59:31;99506.22;;;2.68;76.90
64616;BME280;51027;42.162;24.754;2023-04-06T01:01:56;99516.66;;;2.62;76.55
64616;BME280;51027;42.162;24.754;2023-04-06T01:04:22;99502.69;;;2.72;76.79
64616;BME280;51027;42.162;24.754;2023-04-06T01:06:48;99498.63;;;2.46;77.39
64616;BME280;51027;42.162;24.754;2023-04-06T01:09:14;99487.22;;;2.59;76.79
64616;BME280;51027;42.162;24.754;2023-04-06T01:11:39;99507.22;;;2.53;77.12
64616;BME280;51027;42.162;24.754;2023-04-06T01:14:05;99485.66;;;2.46;77.10
64616;BME280;51027;42.162;24.754;2023-04-06T01:16:31;99480.44;;;2.45;77.25
64616;BME280;51027;42.162;24.754;2023-04-06T01:18:56;99502.84;;;2.59;77.18
64616;BME280;51027;42.162;24.754;2023-04-06T01:21:21;99481.22;;;2.53;77.48
64616;BME280;51027;42.162;24.754;2023-04-06T01:23:47;99501.06;;;2.63;77.58
64616;BME280;51027;42.162;24.754;2023-04-06T01:26:13;99469.16;;;2.49;77.11
64616;BME280;51027;42.162;24.754;2023-04-06T01:28:38;99498.34;;;2.74;76.49
64616;BME280;51027;42.162;24.754;2023-04-06T01:31:06;99494.09;;;2.65;77.12
64616;BME280;51027;42.162;24.754;2023-04-06T01:33:32;99492.25;;;2.76;76.95
64616;BME280;51027;42.162;24.754;2023-04-06T01:35:57;99487.91;;;2.78;76.40
64616;BME280;51027;42.162;24.754;2023-04-06T01:38:23;99477.66;;;2.63;76.96
64616;BME280;51027;42.162;24.754;2023-04-06T01:40:48;99480.28;;;2.62;76.72
64616;BME280;51027;42.162;24.754;2023-04-06T01:43:14;99462.19;;;2.51;76.29
64616;BME280;51027;42.162;24.754;2023-04-06T01:45:39;99470.72;;;2.64;76.48
64616;BME280;51027;42.162;24.754;2023-04-06T01:48:07;99475.06;;;2.62;76.79
64616;BME280;51027;42.162;24.754;2023-04-06T01:50:32;99475.03;;;2.65;76.31
64616;BME280;51027;42.162;24.754;2023-04-06T01:52:57;99472.41;;;2.68;76.70
64616;BME280;51027;42.162;24.754;2023-04-06T01:55:23;99469.91;;;2.58;77.18
64616;BME280;51027;42.162;24.754;2023-04-06T01:57:48;99479.25;;;2.76;76.82
64616;BME280;51027;42.162;24.754;2023-04-06T02:00:15;99455.25;;;2.51;77.09
64616;BME280;51027;42.162;24.754;2023-04-06T02:02:41;99444.84;;;2.51;77.06
64616;BME280;51027;42.162;24.754;2023-04-06T02:05:07;99457.00;;;2.51;76.92
64616;BME280;51027;42.162;24.754;2023-04-06T02:07:33;99462.91;;;2.64;76.66
64616;BME280;51027;42.162;24.754;2023-04-06T02:09:58;99460.44;;;2.53;77.06
64616;BME280;51027;42.162;24.754;2023-04-06T02:12:24;99455.94;;;2.69;76.99
64616;BME280;51027;42.162;24.754;2023-04-06T02:14:49;99445.69;;;2.53;76.52
64616;BME280;51027;42.162;24.754;2023-04-06T02:17:15;99462.06;;;2.63;76.65
64616;BME280;51027;42.162;24.754;2023-04-06T02:19:40;99455.22;;;2.54;76.19
64616;BME280;51027;42.162;24.754;2023-04-06T02:22:06;99470.03;;;2.45;76.65
64616;BME280;51027;42.162;24.754;2023-04-06T02:24:31;99433.78;;;2.33;76.37
64616;BME280;51027;42.162;24.754;2023-04-06T02:26:57;99440.81;;;2.26;76.90
64616;BME280;51027;42.162;24.754;2023-04-06T02:29:22;99469.31;;;2.32;77.55
64616;BME280;51027;42.162;24.754;2023-04-06T02:31:48;99464.06;;;2.38;77.54
64616;BME280;51027;42.162;24.754;2023-04-06T02:34:13;99477.09;;;2.32;78.16
64616;BME280;51027;42.162;24.754;2023-04-06T02:36:46;99476.25;;;2.30;78.12
64616;BME280;51027;42.162;24.754;2023-04-06T02:39:12;99471.97;;;2.24;78.44
64616;BME280;51027;42.162;24.754;2023-04-06T02:41:38;99483.19;;;2.29;79.27
64616;BME280;51027;42.162;24.754;2023-04-06T02:44:05;99481.47;;;2.30;78.86
64616;BME280;51027;42.162;24.754;2023-04-06T02:46:31;99451.19;;;2.26;78.64
64616;BME280;51027;42.162;24.754;2023-04-06T02:48:56;99480.72;;;2.17;79.11
64616;BME280;51027;42.162;24.754;2023-04-06T02:51:22;99474.75;;;2.03;79.96
64616;BME280;51027;42.162;24.754;2023-04-06T02:53:47;99469.47;;;2.12;80.11
64616;BME280;51027;42.162;24.754;2023-04-06T02:56:13;99448.75;;;2.09;79.92
64616;BME280;51027;42.162;24.754;2023-04-06T02:58:38;99473.91;;;2.06;80.45
64616;BME280;51027;42.162;24.754;2023-04-06T03:01:04;99482.53;;;2.06;80.19
64616;BME280;51027;42.162;24.754;2023-04-06T03:03:29;99477.19;;;2.23;80.12
64616;BME280;51027;42.162;24.754;2023-04-06T03:05:55;99439.41;;;1.88;80.13
64616;BME280;51027;42.162;24.754;2023-04-06T03:08:23;99466.81;;;2.20;80.07
64616;BME280;51027;42.162;24.754;2023-04-06T03:10:49;99470.38;;;2.10;79.76
64616;BME280;51027;42.162;24.754;2023-04-06T03:13:14;99465.13;;;2.14;79.92
64616;BME280;51027;42.162;24.754;2023-04-06T03:15:40;99462.59;;;2.08;79.73
64616;BME280;51027;42.162;24.754;2023-04-06T03:18:05;99456.47;;;2.17;80.19
64616;BME280;51027;42.162;24.754;2023-04-06T03:20:31;99466.69;;;2.37;80.67
64616;BME280;51027;42.162;24.754;2023-04-06T03:22:56;99471.22;;;2.15;80.28
64616;BME280;51027;42.162;24.754;2023-04-06T03:25:21;99469.53;;;2.09;80.61
64616;BME280;51027;42.162;24.754;2023-04-06T03:27:47;99468.66;;;2.09;80.17
64616;BME280;51027;42.162;24.754;2023-04-06T03:30:13;99469.47;;;2.14;80.45
64616;BME280;51027;42.162;24.754;2023-04-06T03:32:38;99465.94;;;2.21;80.39
64616;BME280;51027;42.162;24.754;2023-04-06T03:35:04;99469.38;;;2.27;80.38
64616;BME280;51027;42.162;24.754;2023-04-06T03:37:30;99472.84;;;2.25;80.53
64616;BME280;51027;42.162;24.754;2023-04-06T03:39:55;99478.00;;;2.28;80.38
64616;BME280;51027;42.162;24.754;2023-04-06T03:42:20;99466.09;;;2.04;80.78
64616;BME280;51027;42.162;24.754;2023-04-06T03:44:46;99479.94;;;2.06;81.11
64616;BME280;51027;42.162;24.754;2023-04-06T03:47:11;99474.78;;;2.00;81.19
64616;BME280;51027;42.162;24.754;2023-04-06T03:49:37;99473.91;;;2.06;81.31
64616;BME280;51027;42.162;24.754;2023-04-06T03:52:02;99471.97;;;2.27;80.54
64616;BME280;51027;42.162;24.754;2023-04-06T03:54:27;99475.53;;;2.16;81.25
64616;BME280;51027;42.162;24.754;2023-04-06T03:56:53;99453.00;;;2.18;80.93
64616;BME280;51027;42.162;24.754;2023-04-06T03:59:18;99457.22;;;2.29;80.68
64616;BME280;51027;42.162;24.754;2023-04-06T04:01:44;99476.13;;;2.45;80.36
64616;BME280;51027;42.162;24.754;2023-04-06T04:04:10;99474.47;;;2.37;80.64
64616;BME280;51027;42.162;24.754;2023-04-06T04:06:35;99470.13;;;2.37;80.37
64616;BME280;51027;42.162;24.754;2023-04-06T04:09:02;99471.81;;;2.41;80.78
64616;BME280;51027;42.162;24.754;2023-04-06T04:11:28;99461.50;;;2.34;81.05
64616;BME280;51027;42.162;24.754;2023-04-06T04:13:53;99453.88;;;2.17;80.87
64616;BME280;51027;42.162;24.754;2023-04-06T04:16:19;99438.31;;;2.15;81.05
64616;BME280;51027;42.162;24.754;2023-04-06T04:18:45;99461.38;;;2.44;80.44
64616;BME280;51027;42.162;24.754;2023-04-06T04:21:12;99365.75;;;1.94;80.19
64616;BME280;51027;42.162;24.754;2023-04-06T04:23:37;99458.75;;;2.49;79.90
64616;BME280;51027;42.162;24.754;2023-04-06T04:26:03;99458.53;;;2.70;78.85
64616;BME280;51027;42.162;24.754;2023-04-06T04:28:28;99462.59;;;2.91;78.28
64616;BME280;51027;42.162;24.754;2023-04-06T04:30:54;99475.56;;;2.97;77.91
64616;BME280;51027;42.162;24.754;2023-04-06T04:33:19;99472.75;;;3.12;77.42
64616;BME280;51027;42.162;24.754;2023-04-06T04:35:45;99479.63;;;3.15;77.44
64616;BME280;51027;42.162;24.754;2023-04-06T04:38:10;99468.44;;;3.10;76.68
64616;BME280;51027;42.162;24.754;2023-04-06T04:40:36;99470.16;;;3.12;76.89
64616;BME280;51027;42.162;24.754;2023-04-06T04:43:01;99472.50;;;3.31;76.27
64616;BME280;51027;42.162;24.754;2023-04-06T04:45:27;99471.75;;;3.23;75.91
64616;BME280;51027;42.162;24.754;2023-04-06T04:47:52;99460.28;;;3.37;76.09
64616;BME280;51027;42.162;24.754;2023-04-06T04:50:18;99469.25;;;3.13;76.50
64616;BME280;51027;42.162;24.754;2023-04-06T04:52:43;99463.09;;;3.22;76.38
64616;BME280;51027;42.162;24.754;2023-04-06T04:55:09;99469.13;;;3.24;76.55
64616;BME280;51027;42.162;24.754;2023-04-06T04:57:34;99463.88;;;3.29;76.32
64616;BME280;51027;42.162;24.754;2023-04-06T04:59:59;99462.38;;;3.09;76.17
64616;BME280;51027;42.162;24.754;2023-04-06T05:02:25;99449.38;;;3.09;76.58
64616;BME280;51027;42.162;24.754;2023-04-06T05:04:50;99452.59;;;3.28;76.23
64616;BME280;51027;42.162;24.754;2023-04-06T05:07:16;99462.88;;;3.36;76.13
64616;BME280;51027;42.162;24.754;2023-04-06T05:09:43;99466.31;;;3.41;75.78
64616;BME280;51027;42.162;24.754;2023-04-06T05:12:09;99455.13;;;4.87;100.00
64616;BME280;51027;42.162;24.754;2023-04-06T05:14:35;99470.88;;;3.84;76.54
64616;BME280;51027;42.162;24.754;2023-04-06T05:17:01;99470.75;;;3.91;75.98
64616;BME280;51027;42.162;24.754;2023-04-06T05:19:26;99468.78;;;4.05;74.94
64616;BME280;51027;42.162;24.754;2023-04-06T05:21:52;99474.88;;;4.04;75.30
64616;BME280;51027;42.162;24.754;2023-04-06T05:24:17;99465.88;;;4.24;74.70
64616;BME280;51027;42.162;24.754;2023-04-06T05:26:42;99467.28;;;3.91;75.10
64616;BME280;51027;42.162;24.754;2023-04-06T05:29:08;99464.34;;;4.12;74.34
64616;BME280;51027;42.162;24.754;2023-04-06T05:31:33;99465.69;;;4.34;73.42
64616;BME280;51027;42.162;24.754;2023-04-06T05:33:59;99456.91;;;4.39;73.28
64616;BME280;51027;42.162;24.754;2023-04-06T05:36:25;99452.59;;;4.36;72.50
64616;BME280;51027;42.162;24.754;2023-04-06T05:38:50;99453.97;;;4.57;71.51
64616;BME280;51027;42.162;24.754;2023-04-06T05:41:17;99417.06;;;4.32;71.52
64616;BME280;51027;42.162;24.754;2023-04-06T05:43:43;99451.50;;;4.51;71.61
64616;BME280;51027;42.162;24.754;2023-04-06T05:46:08;99445.59;;;4.41;71.51
64616;BME280;51027;42.162;24.754;2023-04-06T05:48:34;99453.94;;;4.58;71.13
64616;BME280;51027;42.162;24.754;2023-04-06T05:50:59;99443.72;;;4.46;70.73
64616;BME280;51027;42.162;24.754;2023-04-06T05:53:25;99448.34;;;4.32;71.29
64616;BME280;51027;42.162;24.754;2023-04-06T05:55:54;99438.34;;;4.55;70.21
64616;BME280;51027;42.162;24.754;2023-04-06T05:58:20;99419.41;;;4.90;68.87
64616;BME280;51027;42.162;24.754;2023-04-06T06:00:45;99403.63;;;5.35;68.15
64616;BME280;51027;42.162;24.754;2023-04-06T06:03:12;99427.81;;;4.61;69.72
64616;BME280;51027;42.162;24.754;2023-04-06T06:05:37;99390.72;;;4.46;69.99
64616;BME280;51027;42.162;24.754;2023-04-06T06:08:03;99426.06;;;4.62;70.22
64616;BME280;51027;42.162;24.754;2023-04-06T06:10:28;99431.03;;;4.74;70.37
64616;BME280;51027;42.162;24.754;2023-04-06T06:12:54;99420.50;;;5.19;69.17
64616;BME280;51027;42.162;24.754;2023-04-06T06:15:20;99415.75;;;5.38;67.43
64616;BME280;51027;42.162;24.754;2023-04-06T06:17:45;99359.72;;;5.51;66.42
64616;BME280;51027;42.162;24.754;2023-04-06T06:20:11;99426.47;;;5.64;66.07
64616;BME280;51027;42.162;24.754;2023-04-06T06:22:37;99420.66;;;6.24;65.07
64616;BME280;51027;42.162;24.754;2023-04-06T06:25:02;99422.91;;;6.38;64.07
64616;BME280;51027;42.162;24.754;2023-04-06T06:27:28;99402.78;;;6.07;64.91
64616;BME280;51027;42.162;24.754;2023-04-06T06:29:53;99406.81;;;6.52;64.33
64616;BME280;51027;42.162;24.754;2023-04-06T06:32:19;99411.53;;;6.39;63.53
64616;BME280;51027;42.162;24.754;2023-04-06T06:34:45;99413.16;;;6.45;63.46
64616;BME280;51027;42.162;24.754;2023-04-06T06:37:10;99421.13;;;6.71;62.70
64616;BME280;51027;42.162;24.754;2023-04-06T06:39:35;99427.13;;;6.42;62.24
64616;BME280;51027;42.162;24.754;2023-04-06T06:42:01;99423.94;;;6.65;62.11
64616;BME280;51027;42.162;24.754;2023-04-06T06:44:27;99423.63;;;6.76;61.16
64616;BME280;51027;42.162;24.754;2023-04-06T06:46:53;99409.00;;;6.36;61.63
64616;BME280;51027;42.162;24.754;2023-04-06T06:49:18;99423.22;;;6.58;62.03
64616;BME280;51027;42.162;24.754;2023-04-06T06:51:44;99427.38;;;6.97;60.56
64616;BME280;51027;42.162;24.754;2023-04-06T06:54:11;99416.97;;;6.93;60.80
64616;BME280;51027;42.162;24.754;2023-04-06T06:56:36;99420.56;;;6.91;60.06
64616;BME280;51027;42.162;24.754;2023-04-06T06:59:03;99421.88;;;7.63;59.54
64616;BME280;51027;42.162;24.754;2023-04-06T07:01:29;99395.38;;;7.16;60.08
64616;BME280;51027;42.162;24.754;2023-04-06T07:03:54;99405.38;;;7.60;58.55
64616;BME280;51027;42.162;24.754;2023-04-06T07:06:20;99416.84;;;7.84;57.68
64616;BME280;51027;42.162;24.754;2023-04-06T07:08:46;99423.00;;;8.09;58.14
64616;BME280;51027;42.162;24.754;2023-04-06T07:11:11;99423.53;;;7.66;57.47
64616;BME280;51027;42.162;24.754;2023-04-06T07:13:37;99427.09;;;7.63;58.29
64616;BME280;51027;42.162;24.754;2023-04-06T07:16:02;99424.06;;;8.03;57.22
64616;BME280;51027;42.162;24.754;2023-04-06T07:18:28;99418.66;;;7.82;57.83
64616;BME280;51027;42.162;24.754;2023-04-06T07:20:53;99398.69;;;8.04;57.33
64616;BME280;51027;42.162;24.754;2023-04-06T07:23:18;99416.31;;;7.72;57.35
64616;BME280;51027;42.162;24.754;2023-04-06T07:25:44;99424.75;;;7.54;57.58
64616;BME280;51027;42.162;24.754;2023-04-06T07:28:10;99423.56;;;7.64;57.81
64616;BME280;51027;42.162;24.754;2023-04-06T07:30:37;99421.72;;;7.94;57.65
64616;BME280;51027;42.162;24.754;2023-04-06T07:33:03;99421.41;;;8.30;57.28
64616;BME280;51027;42.162;24.754;2023-04-06T07:35:28;99415.22;;;8.06;56.93
64616;BME280;51027;42.162;24.754;2023-04-06T07:37:55;99415.56;;;7.95;57.93
64616;BME280;51027;42.162;24.754;2023-04-06T07:40:21;99411.72;;;8.58;56.34
64616;BME280;51027;42.162;24.754;2023-04-06T07:42:46;99412.22;;;8.68;55.75
64616;BME280;51027;42.162;24.754;2023-04-06T07:45:12;99411.97;;;8.24;55.94
64616;BME280;51027;42.162;24.754;2023-04-06T07:47:38;99415.56;;;8.22;56.47
64616;BME280;51027;42.162;24.754;2023-04-06T07:50:04;99418.41;;;8.90;56.08
64616;BME280;51027;42.162;24.754;2023-04-06T07:52:30;99411.09;;;8.75;55.58
64616;BME280;51027;42.162;24.754;2023-04-06T07:54:57;99422.56;;;8.96;54.70
64616;BME280;51027;42.162;24.754;2023-04-06T07:57:23;99408.13;;;9.08;55.17
64616;BME280;51027;42.162;24.754;2023-04-06T07:59:48;99413.03;;;8.93;55.38
64616;BME280;51027;42.162;24.754;2023-04-06T08:02:14;99387.06;;;9.09;55.41
64616;BME280;51027;42.162;24.754;2023-04-06T08:04:39;99412.75;;;8.78;55.45
64616;BME280;51027;42.162;24.754;2023-04-06T08:07:05;99414.97;;;9.57;54.26
64616;BME280;51027;42.162;24.754;2023-04-06T08:09:30;99394.81;;;9.12;54.22
64616;BME280;51027;42.162;24.754;2023-04-06T08:11:56;99402.75;;;9.34;54.28
64616;BME280;51027;42.162;24.754;2023-04-06T08:14:21;99404.28;;;9.62;53.71
64616;BME280;51027;42.162;24.754;2023-04-06T08:16:47;99401.09;;;10.18;52.84
64616;BME280;51027;42.162;24.754;2023-04-06T08:19:12;99391.59;;;9.49;53.87
64616;BME280;51027;42.162;24.754;2023-04-06T08:21:38;99380.97;;;10.57;52.67
64616;BME280;51027;42.162;24.754;2023-04-06T08:24:05;99391.81;;;10.09;53.13
64616;BME280;51027;42.162;24.754;2023-04-06T08:26:31;99393.25;;;10.38;52.52
64616;BME280;51027;42.162;24.754;2023-04-06T08:28:56;99385.88;;;10.46;52.14
64616;BME280;51027;42.162;24.754;2023-04-06T08:31:22;99398.22;;;10.64;52.25
64616;BME280;51027;42.162;24.754;2023-04-06T08:33:47;99404.09;;;10.90;50.35
64616;BME280;51027;42.162;24.754;2023-04-06T08:36:14;99392.00;;;10.47;50.42
64616;BME280;51027;42.162;24.754;2023-04-06T08:38:41;99388.88;;;10.57;50.39
64616;BME280;51027;42.162;24.754;2023-04-06T08:41:12;99387.09;;;11.35;49.65
64616;BME280;51027;42.162;24.754;2023-04-06T08:43:47;99373.69;;;10.64;49.94
64616;BME280;51027;42.162;24.754;2023-04-06T08:46:13;99378.81;;;11.23;49.35
64616;BME280;51027;42.162;24.754;2023-04-06T08:48:40;99380.41;;;11.28;49.22
64616;BME280;51027;42.162;24.754;2023-04-06T08:51:07;99369.66;;;11.68;48.38
64616;BME280;51027;42.162;24.754;2023-04-06T08:53:33;99360.84;;;10.56;50.07
64616;BME280;51027;42.162;24.754;2023-04-06T08:55:59;99362.66;;;11.31;49.41
64616;BME280;51027;42.162;24.754;2023-04-06T08:58:28;99368.47;;;11.57;48.61
64616;BME280;51027;42.162;24.754;2023-04-06T09:00:55;99356.53;;;11.31;48.53
64616;BME280;51027;42.162;24.754;2023-04-06T09:03:22;99356.09;;;11.40;48.36
64616;BME280;51027;42.162;24.754;2023-04-06T09:05:49;99346.66;;;11.53;48.45
64616;BME280;51027;42.162;24.754;2023-04-06T09:08:15;99328.41;;;11.12;48.05
64616;BME280;51027;42.162;24.754;2023-04-06T09:10:41;99346.84;;;11.67;47.62
64616;BME280;51027;42.162;24.754;2023-04-06T09:13:06;99314.19;;;12.04;46.87
64616;BME280;51027;42.162;24.754;2023-04-06T09:15:33;99351.47;;;11.62;46.88
64616;BME280;51027;42.162;24.754;2023-04-06T09:17:58;99333.94;;;11.80;46.46
64616;BME280;51027;42.162;24.754;2023-04-06T09:20:25;99334.44;;;12.38;45.30
64616;BME280;51027;42.162;24.754;2023-04-06T09:22:52;99339.28;;;12.63;44.27
64616;BME280;51027;42.162;24.754;2023-04-06T09:25:22;99334.69;;;11.82;44.90
64616;BME280;51027;42.162;24.754;2023-04-06T09:27:49;99271.19;;;11.68;44.59
64616;BME280;51027;42.162;24.754;2023-04-06T09:30:23;99330.66;;;11.92;44.72
64616;BME280;51027;42.162;24.754;2023-04-06T09:32:51;99304.44;;;11.89;43.51
64616;BME280;51027;42.162;24.754;2023-04-06T09:35:18;99311.94;;;12.14;43.30
64616;BME280;51027;42.162;24.754;2023-04-06T09:37:46;99294.00;;;12.21;43.75
64616;BME280;51027;42.162;24.754;2023-04-06T09:40:13;99312.19;;;12.60;44.26
64616;BME280;51027;42.162;24.754;2023-04-06T09:42:41;99305.91;;;12.12;43.18
64616;BME280;51027;42.162;24.754;2023-04-06T09:45:07;99316.69;;;13.22;42.77
64616;BME280;51027;42.162;24.754;2023-04-06T09:47:36;99317.25;;;12.96;43.17
64616;BME280;51027;42.162;24.754;2023-04-06T09:50:02;99308.97;;;12.37;44.80
64616;BME280;51027;42.162;24.754;2023-04-06T09:52:32;99304.47;;;12.22;44.85
64616;BME280;51027;42.162;24.754;2023-04-06T09:55:03;99307.09;;;12.73;44.99
64616;BME280;51027;42.162;24.754;2023-04-06T09:57:32;99292.72;;;13.10;43.54
64616;BME280;51027;42.162;24.754;2023-04-06T10:00:04;99305.91;;;12.78;44.44
64616;BME280;51027;42.162;24.754;2023-04-06T10:02:58;99304.22;;;12.77;44.37
64616;BME280;51027;42.162;24.754;2023-04-06T10:05:36;99309.56;;;13.07;44.17
64616;BME280;51027;42.162;24.754;2023-04-06T10:08:08;99295.84;;;12.69;43.60
64616;BME280;51027;42.162;24.754;2023-04-06T10:10:34;99288.69;;;13.34;42.28
64616;BME280;51027;42.162;24.754;2023-04-06T10:13:00;99281.56;;;12.56;44.00
64616;BME280;51027;42.162;24.754;2023-04-06T10:15:28;99284.44;;;13.32;43.39
64616;BME280;51027;42.162;24.754;2023-04-06T10:17:55;99272.81;;;12.71;45.09
64616;BME280;51027;42.162;24.754;2023-04-06T10:23:09;99290.34;;;13.67;42.87
64616;BME280;51027;42.162;24.754;2023-04-06T10:25:39;99264.09;;;13.78;42.26
64616;BME280;51027;42.162;24.754;2023-04-06T10:28:06;99278.88;;;13.52;41.82
64616;BME280;51027;42.162;24.754;2023-04-06T10:30:37;99243.22;;;13.43;42.04
64616;BME280;51027;42.162;24.754;2023-04-06T10:33:33;99273.66;;;13.80;41.43
64616;BME280;51027;42.162;24.754;2023-04-06T10:36:10;99247.13;;;13.52;42.08
64616;BME280;51027;42.162;24.754;2023-04-06T10:38:37;99256.63;;;13.24;42.37
64616;BME280;51027;42.162;24.754;2023-04-06T10:41:05;99262.38;;;13.77;41.55
64616;BME280;51027;42.162;24.754;2023-04-06T10:43:33;99257.28;;;13.44;42.79
64616;BME280;51027;42.162;24.754;2023-04-06T10:46:00;99254.44;;;13.77;41.91
64616;BME280;51027;42.162;24.754;2023-04-06T10:48:37;99252.63;;;13.33;41.08
64616;BME280;51027;42.162;24.754;2023-04-06T10:51:08;99259.53;;;12.88;42.08
64616;BME280;51027;42.162;24.754;2023-04-06T10:53:34;99245.88;;;13.58;42.09
64616;BME280;51027;42.162;24.754;2023-04-06T10:56:00;99249.38;;;13.88;41.61
64616;BME280;51027;42.162;24.754;2023-04-06T10:58:27;99253.66;;;14.05;40.61
64616;BME280;51027;42.162;24.754;2023-04-06T11:00:53;99253.41;;;13.19;40.32
64616;BME280;51027;42.162;24.754;2023-04-06T11:03:20;99246.38;;;13.94;39.65
64616;BME280;51027;42.162;24.754;2023-04-06T11:05:46;99236.47;;;13.68;39.28
64616;BME280;51027;42.162;24.754;2023-04-06T11:08:29;99235.78;;;14.08;39.39
64616;BME280;51027;42.162;24.754;2023-04-06T11:11:08;99232.16;;;14.81;38.81
64616;BME280;51027;42.162;24.754;2023-04-06T11:13:54;99235.44;;;14.57;39.25
64616;BME280;51027;42.162;24.754;2023-04-06T11:16:27;99239.19;;;13.36;39.98
64616;BME280;51027;42.162;24.754;2023-04-06T11:24:20;99221.38;;;13.70;39.77
64616;BME280;51027;42.162;24.754;2023-04-06T11:26:56;99229.94;;;14.03;40.66
64616;BME280;51027;42.162;24.754;2023-04-06T11:29:24;99214.66;;;14.92;39.74
64616;BME280;51027;42.162;24.754;2023-04-06T11:31:52;99222.81;;;14.75;39.73
64616;BME280;51027;42.162;24.754;2023-04-06T11:34:22;99218.78;;;14.12;39.88
64616;BME280;51027;42.162;24.754;2023-04-06T11:36:49;99222.53;;;14.37;39.08
64616;BME280;51027;42.162;24.754;2023-04-06T11:39:21;99215.06;;;15.53;37.52
64616;BME280;51027;42.162;24.754;2023-04-06T11:41:53;99194.75;;;15.52;37.00
64616;BME280;51027;42.162;24.754;2023-04-06T11:44:39;99217.03;;;15.10;37.24
64616;BME280;51027;42.162;24.754;2023-04-06T11:47:10;99211.69;;;13.54;39.38
64616;BME280;51027;42.162;24.754;2023-04-06T11:49:41;99201.22;;;13.37;40.26
64616;BME280;51027;42.162;24.754;2023-04-06T11:52:21;99208.28;;;14.95;38.08
64616;BME280;51027;42.162;24.754;2023-04-06T11:54:48;99211.34;;;15.16;37.53
64616;BME280;51027;42.162;24.754;2023-04-06T11:57:14;99219.38;;;13.73;38.95
64616;BME280;51027;42.162;24.754;2023-04-06T11:59:40;99205.69;;;13.81;39.03
64616;BME280;51027;42.162;24.754;2023-04-06T12:02:06;99214.50;;;14.67;37.70
64616;BME280;51027;42.162;24.754;2023-04-06T12:04:32;99198.91;;;14.48;37.62
64616;BME280;51027;42.162;24.754;2023-04-06T12:06:58;99207.19;;;13.71;39.13
64616;BME280;51027;42.162;24.754;2023-04-06T12:09:23;99167.50;;;12.95;40.82
64616;BME280;51027;42.162;24.754;2023-04-06T12:11:49;99210.25;;;13.19;40.85
64616;BME280;51027;42.162;24.754;2023-04-06T12:14:14;99208.03;;;13.71;40.01
64616;BME280;51027;42.162;24.754;2023-04-06T12:16:40;99202.03;;;13.23;40.75
64616;BME280;51027;42.162;24.754;2023-04-06T12:19:06;99209.66;;;13.44;40.60
64616;BME280;51027;42.162;24.754;2023-04-06T12:21:31;99167.19;;;13.61;40.40
64616;BME280;51027;42.162;24.754;2023-04-06T12:23:58;99208.81;;;13.43;40.93
64616;BME280;51027;42.162;24.754;2023-04-06T12:26:24;99206.47;;;13.07;41.27
64616;BME280;51027;42.162;24.754;2023-04-06T12:28:50;99197.03;;;13.19;41.40
64616;BME280;51027;42.162;24.754;2023-04-06T12:31:17;99173.03;;;13.22;41.54
64616;BME280;51027;42.162;24.754;2023-04-06T12:33:43;99204.47;;;14.29;40.22
64616;BME280;51027;42.162;24.754;2023-04-06T12:36:14;99201.38;;;14.23;40.33
64616;BME280;51027;42.162;24.754;2023-04-06T12:38:40;99199.13;;;13.28;40.51
64616;BME280;51027;42.162;24.754;2023-04-06T12:41:06;99189.31;;;13.14;40.27
64616;BME280;51027;42.162;24.754;2023-04-06T12:43:32;99182.28;;;12.99;41.02
64616;BME280;51027;42.162;24.754;2023-04-06T12:45:58;99184.06;;;13.44;40.13
64616;BME280;51027;42.162;24.754;2023-04-06T12:48:24;99186.59;;;13.32;41.38
64616;BME280;51027;42.162;24.754;2023-04-06T12:50:54;99195.47;;;13.61;40.60
64616;BME280;51027;42.162;24.754;2023-04-06T12:53:20;99186.34;;;13.50;39.96
64616;BME280;51027;42.162;24.754;2023-04-06T12:55:46;99186.59;;;13.32;40.70
64616;BME280;51027;42.162;24.754;2023-04-06T12:58:11;99189.63;;;12.78;41.02
64616;BME280;51027;42.162;24.754;2023-04-06T13:00:37;99183.97;;;13.90;39.79
64616;BME280;51027;42.162;24.754;2023-04-06T13:03:02;99188.03;;;14.10;39.84